createdAt,value
2019-01-19T00:01:17.071Z,8.00
2019-01-19T00:04:43.690Z,6.40
2019-01-19T00:07:37.490Z,4.23
2019-01-19T00:10:55.061Z,4.20
2019-01-19T00:13:47.330Z,12.73
2019-01-19T00:17:02.281Z,6.27
2019-01-19T00:20:01.445Z,4.30
2019-01-19T00:22:56.820Z,5.07
2019-01-19T00:25:51.121Z,5.00
2019-01-19T00:28:37.210Z,3.90
2019-01-19T00:31:23.739Z,6.50
2019-01-19T00:35:08.674Z,3.57
2019-01-19T00:38:10.445Z,5.07
2019-01-19T00:41:14.711Z,3.80
2019-01-19T00:44:08.496Z,3.90
2019-01-19T00:47:14.631Z,6.97
2019-01-19T00:50:17.082Z,9.33
2019-01-19T00:53:20.782Z,4.10
2019-01-19T00:56:22.837Z,3.90
2019-01-19T00:59:04.177Z,5.57
2019-01-19T01:02:06.306Z,3.57
2019-01-19T01:04:57.387Z,3.50
2019-01-19T01:08:01.722Z,4.20
2019-01-19T01:11:16.428Z,3.17
2019-01-19T01:14:46.284Z,3.63
2019-01-19T01:17:43.530Z,3.80
2019-01-19T01:20:39.618Z,3.03
2019-01-19T01:23:51.470Z,5.33
2019-01-19T01:27:21.295Z,6.27
2019-01-19T01:30:28.471Z,6.93
2019-01-19T01:33:36.016Z,11.70
2019-01-19T01:36:49.373Z,9.97
2019-01-19T01:40:12.754Z,8.83
2019-01-19T01:43:16.520Z,5.83
2019-01-19T01:46:46.239Z,3.97
2019-01-19T01:50:03.631Z,4.07
2019-01-19T01:53:12.459Z,9.10
2019-01-19T01:55:49.697Z,3.77
2019-01-19T01:59:10.033Z,2.37
2019-01-19T02:02:04.860Z,4.80
2019-01-19T02:05:24.921Z,4.40
2019-01-19T02:08:32.697Z,3.37
2019-01-19T02:11:52.409Z,2.30
2019-01-19T02:14:29.819Z,2.87
2019-01-19T02:17:40.391Z,4.63
2019-01-19T02:20:36.710Z,3.23
2019-01-19T02:23:50.395Z,3.13
2019-01-19T02:26:51.381Z,4.80
2019-01-19T02:30:13.481Z,2.53
2019-01-19T02:33:28.361Z,3.30
2019-01-19T02:36:50.236Z,4.90
2019-01-19T02:39:54.235Z,4.90
2019-01-19T02:42:55.655Z,4.23
2019-01-19T02:45:57.929Z,2.57
2019-01-19T02:48:57.404Z,5.43
2019-01-19T02:52:17.971Z,2.77
2019-01-19T02:55:29.170Z,3.47
2019-01-19T02:58:52.518Z,3.03
2019-01-19T03:01:53.975Z,5.07
2019-01-19T03:04:57.184Z,5.40
2019-01-19T03:07:44.623Z,3.20
2019-01-19T03:10:50.872Z,5.63
2019-01-19T03:14:17.781Z,7.10
2019-01-19T03:17:47.548Z,8.80
2019-01-19T03:21:04.241Z,10.43
2019-01-19T03:24:07.141Z,5.87
2019-01-19T03:26:48.480Z,7.00
2019-01-19T03:30:00.596Z,6.07
2019-01-19T03:33:24.158Z,7.93
2019-01-19T03:36:22.322Z,11.47
2019-01-19T03:39:47.574Z,11.37
2019-01-19T03:43:14.374Z,9.60
2019-01-19T03:46:32.536Z,11.13
2019-01-19T03:49:25.897Z,17.17
2019-01-19T03:52:10.430Z,14.63
2019-01-19T03:55:14.769Z,16.73
2019-01-19T03:58:10.822Z,15.67
2019-01-19T04:01:05.411Z,15.87
2019-01-19T04:04:02.039Z,20.17
2019-01-19T04:07:17.048Z,20.83
2019-01-19T04:10:28.603Z,17.57
2019-01-19T04:13:38.428Z,19.67
2019-01-19T04:16:48.075Z,20.37
2019-01-19T04:20:05.884Z,27.70
2019-01-19T04:22:49.345Z,27.27
2019-01-19T04:25:47.780Z,26.80
2019-01-19T04:28:21.290Z,28.60
2019-01-19T04:30:52.727Z,28.83
2019-01-19T04:33:24.205Z,29.83
2019-01-19T04:35:55.753Z,30.13
2019-01-19T04:38:27.244Z,37.00
2019-01-19T04:40:58.680Z,36.80
2019-01-19T04:43:29.957Z,34.87
2019-01-19T04:46:01.359Z,35.93
2019-01-19T04:48:33.523Z,37.17
2019-01-19T04:51:05.000Z,37.70
2019-01-19T04:53:36.420Z,37.83
2019-01-19T04:56:07.918Z,40.90
2019-01-19T04:58:39.471Z,37.50
2019-01-19T05:01:11.060Z,44.67
2019-01-19T05:03:42.580Z,40.70
2019-01-19T05:06:13.976Z,40.07
2019-01-19T05:08:45.384Z,43.77
2019-01-19T05:11:16.931Z,53.63
2019-01-19T05:13:48.230Z,46.90
2019-01-19T05:16:19.640Z,50.23
2019-01-19T05:18:51.091Z,46.47
2019-01-19T05:21:22.876Z,48.30
2019-01-19T05:23:55.318Z,45.73
2019-01-19T05:26:26.845Z,46.43
2019-01-19T05:28:58.330Z,51.10
2019-01-19T05:31:29.803Z,50.30
2019-01-19T05:34:01.217Z,48.13
2019-01-19T05:36:38.311Z,46.40
2019-01-19T05:39:08.528Z,48.37
2019-01-19T05:41:39.891Z,52.23
2019-01-19T05:44:11.357Z,51.77
2019-01-19T05:46:42.803Z,52.13
2019-01-19T05:49:14.166Z,54.77
2019-01-19T05:51:45.479Z,56.40
2019-01-19T05:54:16.880Z,53.63
2019-01-19T05:56:48.298Z,52.03
2019-01-19T05:59:19.636Z,53.30
2019-01-19T06:01:51.164Z,52.40
2019-01-19T06:04:22.526Z,48.53
2019-01-19T06:06:53.981Z,50.40
2019-01-19T06:09:25.354Z,48.80
2019-01-19T06:11:56.834Z,53.03
2019-01-19T06:14:28.151Z,48.93
2019-01-19T06:16:59.584Z,51.07
2019-01-19T06:19:31.222Z,49.67
2019-01-19T06:22:02.789Z,50.80
2019-01-19T06:24:34.367Z,46.20
2019-01-19T06:27:05.729Z,52.63
2019-01-19T06:29:37.194Z,51.13
2019-01-19T06:32:08.601Z,52.00
2019-01-19T06:34:40.241Z,49.87
2019-01-19T06:37:11.792Z,49.13
2019-01-19T06:39:43.332Z,51.40
2019-01-19T06:42:14.880Z,47.73
2019-01-19T06:44:46.726Z,48.43
2019-01-19T06:47:18.248Z,52.43
2019-01-19T06:49:49.740Z,47.13
2019-01-19T06:52:21.164Z,47.70
2019-01-19T06:54:52.623Z,48.87
2019-01-19T06:57:24.122Z,48.33
2019-01-19T06:59:55.584Z,46.67
2019-01-19T07:02:27.100Z,46.03
2019-01-19T07:04:58.621Z,51.03
2019-01-19T07:07:30.113Z,45.33
2019-01-19T07:10:01.616Z,44.30
2019-01-19T07:12:33.079Z,41.53
2019-01-19T07:15:04.791Z,41.73
2019-01-19T07:17:36.353Z,36.40
2019-01-19T07:20:09.201Z,35.93
2019-01-19T07:22:40.612Z,39.10
2019-01-19T07:25:12.163Z,37.10
2019-01-19T07:27:43.638Z,35.70
2019-01-19T07:30:16.891Z,33.13
2019-01-19T07:32:48.893Z,32.63
2019-01-19T07:35:20.472Z,37.50
2019-01-19T07:37:51.846Z,36.20
2019-01-19T07:40:23.275Z,35.17
2019-01-19T07:42:58.400Z,42.43
2019-01-19T07:45:29.754Z,36.33
2019-01-19T07:48:01.072Z,36.00
2019-01-19T07:50:32.621Z,30.27
2019-01-19T07:53:04.089Z,30.57
2019-01-19T07:55:35.620Z,31.63
2019-01-19T07:58:07.090Z,32.27
2019-01-19T08:00:38.499Z,31.60
2019-01-19T08:03:09.909Z,28.57
2019-01-19T08:05:41.334Z,28.43
2019-01-19T08:08:12.760Z,30.60
2019-01-19T08:10:44.205Z,30.53
2019-01-19T08:13:15.541Z,26.93
2019-01-19T08:15:47.155Z,28.90
2019-01-19T08:18:18.560Z,28.60
2019-01-19T08:20:50.906Z,26.30
2019-01-19T08:23:22.585Z,26.93
2019-01-19T08:25:54.071Z,29.10
2019-01-19T08:28:25.631Z,26.07
2019-01-19T08:30:57.155Z,28.33
2019-01-19T08:33:28.590Z,32.50
2019-01-19T08:36:00.101Z,32.00
2019-01-19T08:38:32.893Z,25.10
2019-01-19T08:41:04.350Z,24.37
2019-01-19T08:43:41.133Z,24.77
2019-01-19T08:46:12.452Z,28.23
2019-01-19T08:48:43.958Z,29.47
2019-01-19T08:51:15.369Z,23.07
2019-01-19T08:53:46.835Z,25.37
2019-01-19T08:56:18.311Z,26.90
2019-01-19T08:58:49.802Z,23.73
2019-01-19T09:01:21.350Z,25.83
2019-01-19T09:03:52.679Z,25.60
2019-01-19T09:06:24.078Z,23.97
2019-01-19T09:08:55.505Z,23.27
2019-01-19T09:11:26.888Z,25.57
2019-01-19T09:13:58.443Z,23.80
2019-01-19T09:16:29.767Z,25.23
2019-01-19T09:19:01.143Z,21.93
2019-01-19T09:21:32.539Z,22.77
2019-01-19T09:24:07.483Z,25.30
2019-01-19T09:26:38.762Z,23.23
2019-01-19T09:29:10.184Z,23.53
2019-01-19T09:31:41.644Z,26.10
2019-01-19T09:34:13.168Z,25.90
2019-01-19T09:36:44.728Z,28.30
2019-01-19T09:39:16.379Z,25.93
2019-01-19T09:41:47.731Z,21.50
2019-01-19T09:44:19.120Z,23.37
2019-01-19T09:46:50.475Z,24.67
2019-01-19T09:49:21.885Z,21.10
2019-01-19T09:51:53.284Z,23.23
2019-01-19T09:54:24.960Z,28.93
2019-01-19T09:56:56.448Z,26.13
2019-01-19T09:59:27.819Z,31.87
2019-01-19T10:01:59.177Z,30.03
2019-01-19T10:04:30.631Z,21.50
2019-01-19T10:07:02.004Z,26.83
2019-01-19T10:09:33.469Z,31.00
2019-01-19T10:12:04.980Z,32.93
2019-01-19T10:14:36.381Z,22.50
2019-01-19T10:17:07.861Z,22.50
2019-01-19T10:19:39.362Z,25.03
2019-01-19T10:22:13.992Z,21.30
2019-01-19T10:24:45.441Z,24.57
2019-01-19T10:27:16.926Z,25.20
2019-01-19T10:29:48.325Z,24.00
2019-01-19T10:32:19.805Z,24.07
2019-01-19T10:34:51.162Z,24.40
2019-01-19T10:37:22.649Z,19.90
2019-01-19T10:39:54.131Z,21.37
2019-01-19T10:42:25.519Z,22.53
2019-01-19T10:44:56.935Z,23.07
2019-01-19T10:47:28.323Z,21.77
2019-01-19T10:49:59.871Z,18.83
2019-01-19T10:52:31.251Z,20.70
2019-01-19T10:55:02.617Z,19.27
2019-01-19T10:57:33.972Z,17.90
2019-01-19T11:00:06.487Z,16.10
2019-01-19T11:02:38.016Z,20.53
2019-01-19T11:05:12.145Z,20.27
2019-01-19T11:07:47.663Z,18.17
2019-01-19T11:10:21.383Z,20.87
2019-01-19T11:12:52.806Z,16.20
2019-01-19T11:15:24.642Z,17.93
2019-01-19T11:17:56.119Z,16.77
2019-01-19T11:20:29.010Z,19.07
2019-01-19T11:23:01.458Z,17.47
2019-01-19T11:25:32.932Z,17.93
2019-01-19T11:28:04.833Z,16.87
2019-01-19T11:30:36.161Z,17.17
2019-01-19T11:33:07.541Z,17.60
2019-01-19T11:35:38.865Z,18.97
2019-01-19T11:38:12.020Z,16.07
2019-01-19T11:40:43.603Z,18.57
2019-01-19T11:43:15.077Z,18.70
2019-01-19T11:45:46.610Z,19.70
2019-01-19T11:48:18.171Z,24.43
2019-01-19T11:50:49.681Z,26.07
2019-01-19T11:53:21.119Z,19.93
2019-01-19T11:55:52.637Z,22.67
2019-01-19T11:58:24.146Z,24.07
2019-01-19T12:00:55.654Z,27.70
2019-01-19T12:03:27.024Z,30.83
2019-01-19T12:05:58.599Z,23.50
2019-01-19T12:08:30.135Z,29.30
2019-01-19T12:11:01.682Z,19.77
2019-01-19T12:13:33.204Z,16.23
2019-01-19T12:16:04.667Z,17.67
2019-01-19T12:18:36.120Z,20.83
2019-01-19T12:21:07.566Z,19.00
2019-01-19T12:23:39.171Z,18.23
2019-01-19T12:26:10.493Z,20.20
2019-01-19T12:28:41.963Z,15.50
2019-01-19T12:31:14.631Z,13.83
2019-01-19T12:33:46.016Z,16.73
2019-01-19T12:36:17.939Z,17.23
2019-01-19T12:38:49.604Z,23.13
2019-01-19T12:41:21.111Z,25.83
2019-01-19T12:43:52.721Z,19.13
2019-01-19T12:46:24.320Z,26.30
2019-01-19T12:48:55.931Z,19.23
2019-01-19T12:51:27.554Z,23.23
2019-01-19T12:53:59.721Z,16.00
2019-01-19T12:56:31.199Z,19.90
2019-01-19T12:59:02.675Z,17.40
2019-01-19T13:01:34.141Z,16.27
2019-01-19T13:04:05.951Z,34.80
2019-01-19T13:06:51.722Z,22.37
2019-01-19T13:09:29.178Z,22.17
2019-01-19T13:12:29.647Z,24.73
2019-01-19T13:15:44.475Z,19.90
2019-01-19T13:18:49.119Z,20.47
2019-01-19T13:22:02.666Z,22.57
2019-01-19T13:25:06.876Z,20.97
2019-01-19T13:28:35.426Z,26.70
2019-01-19T13:31:50.763Z,18.70
2019-01-19T13:34:52.848Z,17.77
2019-01-19T13:37:50.441Z,31.27
2019-01-19T13:41:01.946Z,58.73
2019-01-19T13:44:27.992Z,37.97
2019-01-19T13:47:33.671Z,72.63
2019-01-19T13:51:15.489Z,49.97
2019-01-19T13:54:09.080Z,34.33
2019-01-19T13:57:09.359Z,31.90
2019-01-19T14:00:18.394Z,23.73
2019-01-19T14:03:35.896Z,27.17
2019-01-19T14:06:39.016Z,22.17
2019-01-19T14:09:48.672Z,18.70
2019-01-19T14:13:24.930Z,27.60
2019-01-19T14:16:41.470Z,23.23
2019-01-19T14:19:56.044Z,67.73
2019-01-19T14:23:00.302Z,31.67
2019-01-19T14:26:22.110Z,32.20
2019-01-19T14:29:46.089Z,22.13
2019-01-19T14:32:33.608Z,24.87
2019-01-19T14:35:19.338Z,23.73
2019-01-19T14:38:26.111Z,28.67
2019-01-19T14:41:19.929Z,39.47
2019-01-19T14:44:17.641Z,30.93
2019-01-19T14:47:08.520Z,25.30
2019-01-19T14:50:17.671Z,21.57
2019-01-19T14:53:32.527Z,23.77
2019-01-19T14:56:32.210Z,23.77
2019-01-19T14:59:49.601Z,21.70
2019-01-19T15:03:06.590Z,21.57
2019-01-19T15:05:45.058Z,19.40
2019-01-19T15:08:43.118Z,28.80
2019-01-19T15:11:59.863Z,35.17
2019-01-19T15:15:01.057Z,57.07
2019-01-19T15:18:08.387Z,33.07
2019-01-19T15:21:10.841Z,25.33
2019-01-19T15:24:09.917Z,26.70
2019-01-19T15:27:22.875Z,28.17
2019-01-19T15:30:38.323Z,31.23
2019-01-19T15:33:55.049Z,30.53
2019-01-19T15:37:07.760Z,21.50
2019-01-19T15:40:13.312Z,25.43
2019-01-19T15:42:57.230Z,21.60
2019-01-19T15:46:06.524Z,27.57
2019-01-19T15:48:48.698Z,28.70
2019-01-19T15:52:03.870Z,35.00
2019-01-19T15:55:13.726Z,31.30
2019-01-19T15:58:07.802Z,24.53
2019-01-19T16:01:01.163Z,25.60
2019-01-19T16:03:57.090Z,30.70
2019-01-19T16:07:05.063Z,25.17
2019-01-19T16:10:29.039Z,23.67
2019-01-19T16:13:49.364Z,26.53
2019-01-19T16:17:11.159Z,26.30
2019-01-19T16:20:21.862Z,27.27
2019-01-19T16:23:19.710Z,29.43
2019-01-19T16:26:36.518Z,29.87
2019-01-19T16:29:36.739Z,29.10
2019-01-19T16:32:45.321Z,24.73
2019-01-19T16:35:40.811Z,25.33
2019-01-19T16:38:46.334Z,28.20
2019-01-19T16:42:03.310Z,25.70
2019-01-19T16:45:20.030Z,31.27
2019-01-19T16:48:12.384Z,27.77
2019-01-19T16:50:52.326Z,25.70
2019-01-19T16:54:17.084Z,29.77
2019-01-19T16:57:29.706Z,27.70
2019-01-19T17:00:46.384Z,30.37
2019-01-19T17:03:41.408Z,33.57
2019-01-19T17:06:35.380Z,30.57
2019-01-19T17:09:32.875Z,31.03
2019-01-19T17:12:39.913Z,26.90
2019-01-19T17:15:43.880Z,43.60
2019-01-19T17:18:39.703Z,31.83
2019-01-19T17:22:03.769Z,26.53
2019-01-19T17:25:13.202Z,43.27
2019-01-19T17:28:10.260Z,31.80
2019-01-19T17:31:25.204Z,27.47
2019-01-19T17:34:22.880Z,29.73
2019-01-19T17:37:34.585Z,29.20
2019-01-19T17:40:42.129Z,36.63
2019-01-19T17:43:50.851Z,26.10
2019-01-19T17:46:48.016Z,36.70
2019-01-19T17:49:35.001Z,34.40
2019-01-19T17:52:45.905Z,28.10
2019-01-19T17:56:21.986Z,37.30
2019-01-19T17:59:25.177Z,33.47
2019-01-19T18:02:54.982Z,35.27
2019-01-19T18:05:48.600Z,56.40
2019-01-19T18:08:48.885Z,39.70
2019-01-19T18:11:57.063Z,45.00
2019-01-19T18:14:56.723Z,34.63
2019-01-19T18:18:17.189Z,31.73
2019-01-19T18:21:31.421Z,35.40
2019-01-19T18:24:53.571Z,32.43
2019-01-19T18:28:00.764Z,34.43
2019-01-19T18:31:14.643Z,31.13
2019-01-19T18:34:11.466Z,37.83
2019-01-19T18:37:22.355Z,42.77
2019-01-19T18:40:47.988Z,31.60
2019-01-19T18:43:58.639Z,27.53
2019-01-19T18:46:57.712Z,27.00
2019-01-19T18:50:08.341Z,29.63
2019-01-19T18:53:17.573Z,26.33
2019-01-19T18:56:13.421Z,26.37
2019-01-19T18:59:37.131Z,34.47
2019-01-19T19:02:32.051Z,32.70
2019-01-19T19:05:34.649Z,32.67
2019-01-19T19:08:45.029Z,42.53
2019-01-19T19:11:51.360Z,39.47
2019-01-19T19:14:50.336Z,37.77
2019-01-19T19:17:51.308Z,43.23
2019-01-19T19:20:53.110Z,31.97
2019-01-19T19:24:05.746Z,29.87
2019-01-19T19:27:26.161Z,25.60
2019-01-19T19:30:36.830Z,25.30
2019-01-19T19:34:00.567Z,22.10
2019-01-19T19:37:13.164Z,24.00
2019-01-19T19:40:11.029Z,29.37
2019-01-19T19:42:53.827Z,25.17
2019-01-19T19:46:08.573Z,25.80
2019-01-19T19:49:19.140Z,36.00
2019-01-19T19:52:04.427Z,37.03
2019-01-19T19:54:37.168Z,42.10
2019-01-19T19:57:10.141Z,33.90
2019-01-19T19:59:41.540Z,37.87
2019-01-19T20:02:12.906Z,38.83
2019-01-19T20:04:44.439Z,30.97
2019-01-19T20:07:15.890Z,35.47
2019-01-19T20:09:47.398Z,26.17
2019-01-19T20:12:18.977Z,31.10
2019-01-19T20:14:50.451Z,39.67
2019-01-19T20:17:21.894Z,34.43
2019-01-19T20:19:53.339Z,37.07
2019-01-19T20:22:24.660Z,26.57
2019-01-19T20:24:56.109Z,27.00
2019-01-19T20:27:27.600Z,32.23
2019-01-19T20:30:00.241Z,26.67
2019-01-19T20:32:32.727Z,30.90
2019-01-19T20:35:04.338Z,45.43
2019-01-19T20:37:35.765Z,40.00
2019-01-19T20:40:08.047Z,32.80
2019-01-19T20:42:39.567Z,34.10
2019-01-19T20:45:12.286Z,35.87
2019-01-19T20:47:43.679Z,34.90
2019-01-19T20:50:15.236Z,33.57
2019-01-19T20:52:46.649Z,35.40
2019-01-19T20:55:18.162Z,38.50
2019-01-19T20:57:50.667Z,33.83
2019-01-19T21:00:22.292Z,35.47
2019-01-19T21:02:55.082Z,48.97
2019-01-19T21:05:26.548Z,40.17
2019-01-19T21:07:58.121Z,48.50
2019-01-19T21:10:31.887Z,38.50
2019-01-19T21:13:02.858Z,45.70
2019-01-19T21:15:35.444Z,36.47
2019-01-19T21:18:06.992Z,41.73
2019-01-19T21:20:38.302Z,37.67
2019-01-19T21:23:09.668Z,30.07
2019-01-19T21:25:41.199Z,34.00
2019-01-19T21:28:12.809Z,25.17
2019-01-19T21:30:45.480Z,37.20
2019-01-19T21:33:16.992Z,38.17
2019-01-19T21:35:48.457Z,38.90
2019-01-19T21:38:20.040Z,30.73
2019-01-19T21:40:52.661Z,34.90
2019-01-19T21:43:27.318Z,39.33
2019-01-19T21:46:31.839Z,46.43
2019-01-19T21:49:03.340Z,40.30
2019-01-19T21:51:34.742Z,43.63
2019-01-19T21:54:06.569Z,44.67
2019-01-19T21:56:37.972Z,36.30
2019-01-19T21:59:09.511Z,34.97
2019-01-19T22:01:41.002Z,36.70
2019-01-19T22:04:12.371Z,39.53
2019-01-19T22:06:43.830Z,55.43
2019-01-19T22:09:15.460Z,98.27
2019-01-19T22:11:47.012Z,100.30
2019-01-19T22:14:18.739Z,107.77
2019-01-19T22:16:50.352Z,156.30
2019-01-19T22:19:22.028Z,240.77
2019-01-19T22:21:53.580Z,199.97
2019-01-19T22:24:25.163Z,288.47
2019-01-19T22:26:56.909Z,377.90
2019-01-19T22:29:28.502Z,452.20
2019-01-19T22:32:00.224Z,337.13
2019-01-19T22:34:31.833Z,367.33
2019-01-19T22:37:03.377Z,373.87
2019-01-19T22:39:34.999Z,134.90
2019-01-19T22:42:06.645Z,173.77
2019-01-19T22:44:38.255Z,136.03
2019-01-19T22:47:09.863Z,420.73
2019-01-19T22:49:41.455Z,542.93
2019-01-19T22:52:12.995Z,187.70
2019-01-19T22:54:44.651Z,300.13
2019-01-19T22:57:16.100Z,314.30
2019-01-19T22:59:51.498Z,139.53
2019-01-19T23:02:23.261Z,495.97
2019-01-19T23:04:54.870Z,587.30
2019-01-19T23:07:26.587Z,597.17
2019-01-19T23:09:59.231Z,490.17
2019-01-19T23:12:30.863Z,638.57
2019-01-19T23:15:03.472Z,646.53
2019-01-19T23:17:35.111Z,816.50
2019-01-19T23:20:07.386Z,575.87
2019-01-19T23:22:39.043Z,603.97
2019-01-19T23:25:10.952Z,662.80
2019-01-19T23:27:42.544Z,706.93
2019-01-19T23:30:14.378Z,754.83
2019-01-19T23:32:46.068Z,931.13
2019-01-19T23:35:17.682Z,715.07
2019-01-19T23:37:49.180Z,575.47
2019-01-19T23:40:22.199Z,489.50
2019-01-19T23:42:53.770Z,424.23
2019-01-19T23:45:25.287Z,479.33
2019-01-19T23:47:56.919Z,467.67
2019-01-19T23:50:28.459Z,561.33
2019-01-19T23:52:59.930Z,549.10
2019-01-19T23:55:31.374Z,310.43
2019-01-19T23:58:02.897Z,457.63
